This is the latest recevied weather packets stored in our database for station/object EA3CO-11. If no packets are shown the sender has not sent any weather packets the latest 10 day(s).
| Time | Temp. | Humidity | Pressure | Rain* | Wind** | Luminosity | Snow |
|---|---|---|---|---|---|---|---|
| 1777554122 | 21.67° C | 63% | 1019.4 hPa | - | - | - | - |
| 1777553222 | 21.67° C | 62% | 1019.5 hPa | - | - | - | - |
| 1777552321 | 21.67° C | 60% | 1019.4 hPa | - | - | - | - |
| 1777551421 | 21.11° C | 60% | 1019.5 hPa | - | - | - | - |
| 1777550521 | 20° C | 64% | 1019.6 hPa | - | - | - | - |
| 1777549621 | 20.56° C | 63% | 1019.7 hPa | - | - | - | - |
| 1777547864 | 20.56° C | 70% | 1019.8 hPa | - | - | - | - |
| 1777546964 | 18.89° C | 78% | 1019.9 hPa | - | - | - | - |
| 1777546064 | 18.89° C | 78% | 1019.9 hPa | - | - | - | - |
| 1777545164 | 18.33° C | 81% | 1019.8 hPa | - | - | - | - |
| 1777544263 | 18.89° C | 77% | 1019.8 hPa | - | - | - | - |
| 1777543363 | 18.89° C | 70% | 1019.7 hPa | - | - | - | - |
| 1777542463 | 18.89° C | 67% | 1019.7 hPa | - | - | - | - |
| 1777541563 | 20.56° C | 60% | 1019.5 hPa | - | - | - | - |
| 1777540663 | 20° C | 58% | 1019.4 hPa | - | - | - | - |
| 1777539763 | 20° C | 55% | 1019.2 hPa | - | - | - | - |
| 1777538863 | 21.11° C | 48% | 1019 hPa | - | - | - | - |
| 1777537963 | 21.67° C | 46% | 1018.6 hPa | - | - | - | - |
| 1777537063 | 21.11° C | 48% | 1018.6 hPa | - | - | - | - |
| 1777536163 | 20.56° C | 50% | 1018.4 hPa | - | - | - | - |
| 1777535262 | 20° C | 55% | 1018.3 hPa | - | - | - | - |
| 1777534362 | 18.89° C | 57% | 1018.4 hPa | - | - | - | - |
| 1777533462 | 18.33° C | 57% | 1018.3 hPa | - | - | - | - |
| 1777532562 | 17.22° C | 61% | 1018.4 hPa | - | - | - | - |
| 1777531661 | 16.67° C | 57% | 1018.3 hPa | - | - | - | - |
* Rain since midnight (hover to see other rain measurements)
** Current wind speed in m/s (hover to see current wind gust speed)